»·PEaware :: N902SQ KVGT-KRAL

N902SQ :: KVGT-KRAL

FLIGHT INFORMATION

Flight Status: Arrived
Operator: Privately registered:
United States
More flights under this callsign
Pilot: Gabor H. (24209)
Aircraft: SOCATA TBM-900
(TBM9)
More flights by this aircraft type
Origin: KVGT North Las Vegas
United States
Destination: KRAL Riverside Mun
United States
More flights between these airports :: More routes between these airports
Route:
File this flight plan on PilotEdge
Remarks:
Altitude:
(Current/Filed)
20,000ft
Speed:
(Current/Filed)
310kts
Departed: 09-Nov-23 08:12 AM
Arrived: 09-Nov-23 08:57 AM
Distance/Time
Traveled:
175nm/0:45
Distance/Time
To Go:
Arrived

Flight Plot

Page will automatically refresh every two minutes.

Flight plan parsing failed; only flown route is shown


Map Options




Map Legend


Flown Route
Filed Route
Departure Airport
Arrival Airport
Navaid (VOR, NDB)
Fix

Horizontal Profiles

Position Reports

Time Latitude Longitude Heading Altitude Ground
Speed
09-Nov-23 07:51 36.209381 -115.198563 315 2198ft 0kts
09-Nov-23 07:52 36.209381 -115.198563 315 2198ft 0kts
09-Nov-23 07:53 36.209381 -115.198563 315 2198ft 0kts
09-Nov-23 07:54 36.209381 -115.198563 315 2198ft 0kts
09-Nov-23 07:55 36.209381 -115.198563 315 2198ft 0kts
09-Nov-23 07:56 36.209381 -115.198563 315 2198ft 0kts
09-Nov-23 07:57 36.209381 -115.198563 315 2198ft 0kts
09-Nov-23 07:58 36.209381 -115.198563 315 2198ft 0kts
09-Nov-23 07:59 36.209381 -115.198563 315 2198ft 0kts
09-Nov-23 08:00 36.209381 -115.198563 315 2198ft 0kts
09-Nov-23 08:01 36.209381 -115.198563 315 2198ft 0kts
09-Nov-23 08:02 36.209381 -115.198563 315 2198ft 0kts
09-Nov-23 08:03 36.209381 -115.198563 315 2198ft 0kts
09-Nov-23 08:04 36.209381 -115.198563 315 2198ft 0kts
09-Nov-23 08:05 36.209381 -115.198563 315 2198ft 0kts
09-Nov-23 08:06 36.209381 -115.198563 315 2198ft 0kts
09-Nov-23 08:07 36.210030 -115.197963 134 2198ft 13kts
09-Nov-23 08:08 36.206814 -115.193915 134 2183ft 19kts
09-Nov-23 08:09 36.204768 -115.191257 103 2165ft 0kts
09-Nov-23 08:10 36.205030 -115.190718 24 2164ft 10kts
09-Nov-23 08:11 36.219272 -115.209878 296 2916ft 124kts
09-Nov-23 08:12 36.223362 -115.259036 261 4028ft 187kts
09-Nov-23 08:13 36.200333 -115.318022 224 5305ft 182kts
09-Nov-23 08:14 36.164376 -115.353018 219 8225ft 155kts
09-Nov-23 08:15 36.131342 -115.386182 218 10921ft 162kts
09-Nov-23 08:16 36.095465 -115.422084 218 13604ft 171kts
09-Nov-23 08:17 36.057885 -115.459833 221 16106ft 181kts
09-Nov-23 08:18 36.009110 -115.508814 220 16530ft 268kts
09-Nov-23 08:19 35.948496 -115.569478 220 16508ft 287kts
09-Nov-23 08:20 35.885966 -115.631975 220 16505ft 291kts
09-Nov-23 08:21 35.822902 -115.694873 219 16507ft 292kts
09-Nov-23 08:22 35.759457 -115.758016 219 16498ft 293kts
09-Nov-23 08:23 35.696001 -115.821034 219 16474ft 294kts
09-Nov-23 08:24 35.632292 -115.884169 219 16448ft 294kts
09-Nov-23 08:25 35.568713 -115.947047 219 16435ft 293kts
09-Nov-23 08:26 35.505224 -116.009706 219 16463ft 292kts
09-Nov-23 08:27 35.441999 -116.071966 219 16463ft 292kts
09-Nov-23 08:28 35.378469 -116.134396 219 16464ft 292kts
09-Nov-23 08:29 35.315166 -116.196477 220 16464ft 292kts
09-Nov-23 08:30 35.251993 -116.258303 220 16473ft 290kts
09-Nov-23 08:31 35.189136 -116.319695 220 16473ft 289kts
09-Nov-23 08:32 35.126277 -116.380962 220 16473ft 288kts
09-Nov-23 08:33 35.063701 -116.441835 220 16474ft 287kts
09-Nov-23 08:34 35.001361 -116.502351 220 16474ft 287kts
09-Nov-23 08:35 34.938901 -116.562860 221 16474ft 286kts
09-Nov-23 08:36 34.876563 -116.623149 221 16470ft 286kts
09-Nov-23 08:37 34.814258 -116.683265 220 16438ft 286kts
09-Nov-23 08:38 34.752070 -116.743155 220 16403ft 286kts
09-Nov-23 08:39 34.690282 -116.802526 220 16505ft 283kts
09-Nov-23 08:40 34.625321 -116.864885 219 14936ft 303kts
09-Nov-23 08:41 34.558953 -116.928406 218 13322ft 305kts
09-Nov-23 08:42 34.492206 -116.992157 218 11704ft 305kts
09-Nov-23 08:43 34.425787 -117.055437 218 10092ft 303kts
09-Nov-23 08:44 34.362707 -117.121737 223 8552ft 295kts
09-Nov-23 08:45 34.307616 -117.186468 225 8507ft 267kts
09-Nov-23 08:46 34.261487 -117.248221 229 7208ft 224kts
09-Nov-23 08:47 34.213027 -117.287337 205 5443ft 204kts
09-Nov-23 08:48 34.162951 -117.314902 205 3902ft 191kts
09-Nov-23 08:49 34.115455 -117.338009 201 2572ft 181kts
09-Nov-23 08:50 34.067900 -117.356681 200 2521ft 182kts
09-Nov-23 08:51 34.020192 -117.375858 211 2571ft 173kts
09-Nov-23 08:52 33.993444 -117.410630 219 1820ft 146kts
09-Nov-23 08:53 33.970910 -117.442484 285 1752ft 106kts
09-Nov-23 08:54 33.960875 -117.470724 181 1376ft 107kts
09-Nov-23 08:55 33.952967 -117.446857 104 818ft 59kts
09-Nov-23 08:56 33.951074 -117.443428 100 818ft 2kts
09-Nov-23 08:57 33.950205 -117.442970 298 818ft 0kts
09-Nov-23 08:58 33.950205 -117.442970 298 818ft 0kts
09-Nov-23 08:59 33.950205 -117.442969 298 818ft 0kts
09-Nov-23 09:00 33.950085 -117.442769 316 818ft 2kts
09-Nov-23 09:01 33.949939 -117.442631 339 818ft 0kts
09-Nov-23 09:02 33.949939 -117.442631 339 818ft 0kts

Navigation Log

Ident Type
Flight plan parsing failed, navigation log unavailable